Bridgeport, Texas
Current Conditions -  °F | °C
As of 2:15 AM on Friday 24 Oct 2014 (Local Time) from KXBP Reporting Station
Scattered Clouds Scattered Clouds  
Wind Chill: 59°   Ceiling: Unl
Heat Index: 59°   Visibility: 10mi
Dew Point: 58°   Wind: 0mph
Humidity: 94%   Direction: NA
Pressure: 30.13"   Gusts: NA
Location:  33.21°N, 97.75°W
Report Text: KXBP 240715Z AUTO 00000KT 10SM SCT055 15/14 A3013 RMK AO2 T01510142
Loading
Personal Weather Stations






























Interactive Weather Map
Tropical Storm Tracking
New forecast layout! Learn more

10-Day Weather Forecast

Advertisements
Track Severe Weather on mobile